Time;durP1;ratioP1;P1;durP2;ratioP2;P2;SDS_P1;SDS_P2;PMS_P1;PMS_P2;Temp;Humidity;BMP_temperature;BMP_pressure;BME280_temperature;BME280_humidity;BME280_pressure;Samples;Min_cycle;Max_cycle;Signal;HPM_P1;HPM_P2
2022/10/20 00:01:50;;;;;;;1.83;1.33;;;13.00;99.90;13.60;101318.00;;;;5090217;28;20587;-69
2022/10/20 00:05:15;;;;;;;1.80;1.57;;;12.90;99.90;13.80;101266.00;;;;5074601;28;20266;-70
2022/10/20 00:08:41;;;;;;;1.77;1.67;;;12.80;99.90;13.50;101321.00;;;;5090497;28;20176;-69
2022/10/20 00:11:45;;;;;;;0.67;0.67;;;12.80;99.90;13.60;101316.00;;;;5091009;28;20557;-69
2022/10/20 00:14:51;;;;;;;0.97;0.97;;;12.80;99.90;13.70;101308.00;;;;5091328;28;20181;-69
2022/10/20 00:18:02;;;;;;;0.73;0.73;;;12.90;99.90;13.70;101305.00;;;;5090787;28;20177;-69
2022/10/20 00:21:14;;;;;;;1.07;1.03;;;12.80;99.90;13.40;101308.00;;;;5074113;28;20183;-69
2022/10/20 00:24:15;;;;;;;2.37;1.43;;;12.80;99.90;13.20;101290.00;;;;5090939;28;20171;-70
2022/10/20 00:27:37;;;;;;;1.57;1.47;;;12.70;99.90;13.20;101251.00;;;;5090723;28;20175;-70
2022/10/20 00:30:44;;;;;;;3.43;1.73;;;12.60;99.90;13.40;101231.00;;;;5090863;28;20186;-69
2022/10/20 00:37:25;;;;;;;1.87;1.77;;;12.60;99.90;13.10;101230.00;;;;5087490;28;20188;-69
2022/10/20 00:40:37;;;;;;;0.33;0.33;;;12.70;99.90;13.10;101257.00;;;;5074886;28;20178;-69
2022/10/20 00:43:58;;;;;;;0.77;0.70;;;12.50;99.90;13.80;101266.00;;;;5090005;28;20177;-69
2022/10/20 00:47:20;;;;;;;1.83;1.80;;;12.70;99.90;13.80;101210.00;;;;5074791;28;20532;-69
2022/10/20 00:50:20;;;;;;;1.27;1.17;;;12.80;99.90;13.80;101245.00;;;;5074859;28;20175;-69
2022/10/20 00:53:27;;;;;;;2.23;1.97;;;12.80;99.90;13.60;101212.00;;;;5074509;28;20209;-70
2022/10/20 00:56:42;;;;;;;0.33;0.33;;;12.90;99.90;13.70;101235.00;;;;5088941;28;20631;-69
2022/10/20 01:00:07;;;;;;;0.93;0.93;;;12.80;99.90;13.40;101229.00;;;;5090601;28;20206;-69
2022/10/20 01:03:14;;;;;;;1.60;1.57;;;12.70;99.90;13.50;101230.00;;;;5074405;28;20227;-69
2022/10/20 01:06:22;;;;;;;0.50;0.50;;;12.70;99.90;13.00;101217.00;;;;5089636;28;20554;-69
2022/10/20 01:09:42;;;;;;;2.70;2.00;;;12.70;99.90;13.30;101206.00;;;;5089837;28;20175;-69
2022/10/20 01:13:17;;;;;;;1.40;1.30;;;12.70;99.90;13.40;101215.00;;;;5088243;28;20193;-69
2022/10/20 01:16:50;;;;;;;2.13;1.93;;;12.70;99.90;13.40;101204.00;;;;5074064;28;20673;-70
2022/10/20 01:19:43;;;;;;;1.00;1.00;;;12.60;99.90;12.90;101197.00;;;;5091368;28;20212;-70
2022/10/20 01:22:59;;;;;;;3.27;2.40;;;12.60;99.90;13.00;101138.00;;;;5092281;28;20190;-69
2022/10/20 01:25:55;;;;;;;1.07;1.07;;;12.50;99.90;13.00;101137.00;;;;5092300;28;20209;-69
2022/10/20 01:28:53;;;;;;;0.93;0.93;;;12.50;99.90;13.10;101187.00;;;;5091994;28;20183;-70
2022/10/20 01:35:11;;;;;;;0.20;0.20;;;12.50;99.90;12.80;101172.00;;;;5056989;28;20181;-70
2022/10/20 01:38:03;;;;;;;0.80;0.80;;;12.50;99.90;13.20;101161.00;;;;5073439;28;20542;-70
2022/10/20 01:41:06;;;;;;;2.40;1.60;;;12.60;99.90;12.90;101163.00;;;;5073831;28;20182;-69
2022/10/20 01:44:24;;;;;;;1.33;1.23;;;12.50;99.90;13.10;101155.00;;;;5073949;28;20643;-69
2022/10/20 01:47:37;;;;;;;4.10;3.10;;;12.60;99.90;13.30;101144.00;;;;5088400;28;20627;-70
2022/10/20 01:50:57;;;;;;;2.10;2.00;;;12.70;99.90;13.00;101142.00;;;;5088119;28;20232;-69
2022/10/20 01:53:58;;;;;;;0.97;0.97;;;12.60;99.90;13.40;101147.00;;;;5087004;28;20698;-69
2022/10/20 01:57:29;;;;;;;1.20;1.17;;;12.60;99.90;13.50;101145.00;;;;5089481;28;20175;-69
2022/10/20 02:01:00;;;;;;;2.27;2.07;;;12.80;99.90;13.00;101136.00;;;;5077617;28;20268;-69
2022/10/20 02:03:46;;;;;;;3.33;2.93;;;12.70;99.90;13.00;101141.00;;;;5073211;28;20183;-69
2022/10/20 02:06:50;;;;;;;3.57;1.60;;;12.60;99.90;13.50;101141.00;;;;5072023;28;20721;-69
2022/10/20 02:10:09;;;;;;;2.17;2.03;;;12.70;99.90;13.60;101129.00;;;;5073357;28;20571;-69
2022/10/20 02:13:23;;;;;;;3.07;2.77;;;12.80;99.90;13.30;101117.00;;;;5072678;28;20195;-69
2022/10/20 02:16:38;;;;;;;2.80;1.60;;;12.70;99.90;13.30;101107.00;;;;5088553;28;20188;-69
2022/10/20 02:20:05;;;;;;;3.87;3.07;;;12.70;99.90;13.10;101040.00;;;;5071863;28;20197;-69
2022/10/20 02:23:16;;;;;;;2.63;2.33;;;12.70;99.90;13.20;101088.00;;;;5086824;28;20621;-70
2022/10/20 02:26:45;;;;;;;8.30;4.50;;;12.70;99.90;13.20;101083.00;;;;5088870;28;20215;-69
2022/10/20 02:30:04;;;;;;;2.50;2.30;;;12.60;99.90;13.10;101071.00;;;;5086836;28;20190;-70
2022/10/20 02:33:17;;;;;;;7.33;4.47;;;12.60;99.90;13.00;101082.00;;;;5072226;28;20631;-69
2022/10/20 02:36:26;;;;;;;2.70;2.07;;;12.60;99.90;13.30;101084.00;;;;5088794;28;20227;-69
2022/10/20 02:42:44;;;;;;;0.47;0.47;;;12.70;99.90;13.80;101066.00;;;;5085890;28;20563;-69
2022/10/20 02:45:45;;;;;;;2.23;2.03;;;13.00;99.90;13.80;101076.00;;;;5072876;28;20180;-70
2022/10/20 02:49:04;;;;;;;1.27;1.20;;;13.00;99.90;13.30;101077.00;;;;5088250;28;20226;-69
2022/10/20 02:52:10;;;;;;;1.10;1.03;;;13.00;99.90;13.90;101069.00;;;;5088461;28;20215;-69
2022/10/20 02:55:21;;;;;;;0.77;0.77;;;13.00;99.90;13.70;101062.00;;;;5087839;28;20187;-69
2022/10/20 02:58:45;;;;;;;0.30;0.30;;;12.90;99.90;14.00;101062.00;;;;5088463;28;20193;-69
2022/10/20 03:01:51;;;;;;;0.93;0.93;;;13.10;99.90;14.00;101045.00;;;;5087558;28;20176;-69
2022/10/20 03:05:05;;;;;;;3.60;2.73;;;13.00;99.90;13.90;101061.00;;;;5088552;28;20188;-69
2022/10/20 03:08:13;;;;;;;0.50;0.50;;;13.00;99.90;14.10;101049.00;;;;5074415;28;20179;-70
2022/10/20 03:11:37;;;;;;;1.63;1.53;;;13.10;99.90;14.00;101042.00;;;;5088892;28;20184;-69
2022/10/20 03:14:41;;;;;;;1.63;1.53;;;13.10;99.90;14.20;100994.00;;;;5087657;28;20188;-69
2022/10/20 03:18:02;;;;;;;1.20;1.20;;;13.20;99.90;14.10;101041.00;;;;5088047;28;20223;-69
2022/10/20 03:20:58;;;;;;;1.97;0.97;;;13.20;99.90;14.30;101052.00;;;;5075181;28;20182;-69
2022/10/20 03:24:23;;;;;;;3.23;1.90;;;13.20;99.90;14.00;101030.00;;;;5091635;28;20192;-70
2022/10/20 03:27:39;;;;;;;2.97;1.37;;;13.30;99.90;13.70;101029.00;;;;5075130;28;20239;-70
2022/10/20 03:30:46;;;;;;;2.43;2.23;;;13.20;99.90;13.60;100977.00;;;;5074766;28;20191;-69
2022/10/20 03:33:54;;;;;;;0.47;0.47;;;13.00;99.90;13.80;100970.00;;;;5076505;28;20242;-70
2022/10/20 03:37:00;;;;;;;0.43;0.43;;;13.00;99.90;14.10;100985.00;;;;5092385;28;20518;-69
2022/10/20 03:40:04;;;;;;;0.93;0.93;;;13.10;99.90;13.80;101017.00;;;;5091383;28;20185;-69
2022/10/20 03:43:08;;;;;;;2.07;1.90;;;13.10;99.90;13.90;101032.00;;;;5092244;28;20249;-69
2022/10/20 03:46:21;;;;;;;1.10;0.83;;;13.00;99.90;14.20;101030.00;;;;5090907;28;20207;-70
2022/10/20 03:49:54;;;;;;;1.20;1.10;;;13.00;99.90;13.90;101044.00;;;;5075761;28;20217;-69
2022/10/20 03:56:44;;;;;;;1.43;1.23;;;13.00;99.90;13.80;101039.00;;;;5088354;28;20189;-69
2022/10/20 03:59:52;;;;;;;1.90;1.80;;;12.90;99.90;13.90;101036.00;;;;5075289;28;20629;-69
2022/10/20 04:02:43;;;;;;;2.13;2.00;;;12.90;99.90;13.90;101044.00;;;;5091382;28;20286;-70
2022/10/20 04:06:01;;;;;;;0.50;0.50;;;12.90;99.90;14.20;101014.00;;;;5090739;28;20184;-69
2022/10/20 04:09:04;;;;;;;1.80;0.97;;;13.10;99.90;14.00;101024.00;;;;5091314;28;20604;-69
2022/10/20 04:12:22;;;;;;;2.00;1.90;;;12.90;99.90;13.90;101018.00;;;;5075384;28;20202;-69
2022/10/20 04:15:36;;;;;;;1.20;1.20;;;12.90;99.90;13.80;100999.00;;;;5090582;28;20201;-70
2022/10/20 04:18:47;;;;;;;1.43;1.33;;;12.90;99.90;14.10;100984.00;;;;5074388;28;20603;-69
2022/10/20 04:22:08;;;;;;;0.20;0.20;;;12.80;99.90;14.00;100983.00;;;;5091143;28;20186;-69
2022/10/20 04:25:27;;;;;;;1.37;1.23;;;12.80;99.90;14.00;100978.00;;;;5091241;28;20206;-70
2022/10/20 04:28:48;;;;;;;0.60;0.60;;;13.00;99.90;14.10;100985.00;;;;5090888;28;20184;-70
2022/10/20 04:32:03;;;;;;;0.93;0.90;;;12.80;99.90;13.80;100976.00;;;;5088255;28;20244;-71
2022/10/20 04:35:06;;;;;;;0.43;0.43;;;13.00;99.90;13.60;100955.00;;;;5073723;28;20563;-70
2022/10/20 04:38:10;;;;;;;1.27;0.83;;;12.70;99.90;13.20;100912.00;;;;5090401;28;20195;-71
2022/10/20 04:41:16;;;;;;;0.23;0.23;;;12.60;99.90;13.70;100965.00;;;;5090528;28;20188;-70
2022/10/20 04:44:19;;;;;;;3.10;2.80;;;12.60;99.90;13.80;100973.00;;;;5074121;28;20203;-70
2022/10/20 04:47:40;;;;;;;1.53;1.37;;;12.60;99.90;13.30;100972.00;;;;5090439;28;20244;-70
2022/10/20 04:50:34;;;;;;;1.90;1.80;;;12.60;99.90;13.50;100953.00;;;;5074769;28;20176;-71
2022/10/20 04:53:40;;;;;;;2.40;2.00;;;12.50;99.90;13.00;100913.00;;;;5090468;28;20222;-70
2022/10/20 04:56:36;;;;;;;2.30;1.17;;;12.50;99.90;13.60;100950.00;;;;5090052;28;20651;-70
2022/10/20 04:59:45;;;;;;;5.10;1.90;;;12.50;99.90;13.40;100943.00;;;;5074478;28;20172;-70
2022/10/20 05:02:51;;;;;;;2.37;1.40;;;12.50;99.90;13.60;100977.00;;;;5073518;28;20570;-70
2022/10/20 05:05:50;;;;;;;2.00;1.90;;;12.50;99.90;13.50;100973.00;;;;5074594;28;20193;-71
2022/10/20 05:08:53;;;;;;;6.30;4.57;;;12.50;99.90;13.40;100977.00;;;;5074457;28;20260;-70
2022/10/20 05:12:11;;;;;;;2.03;1.87;;;12.60;99.90;13.40;100970.00;;;;5089872;28;20178;-70
2022/10/20 05:15:26;;;;;;;0.83;0.83;;;12.50;99.90;13.60;100963.00;;;;5089807;28;20204;-71
2022/10/20 05:22:04;;;;;;;1.73;1.63;;;12.40;99.90;13.30;100942.00;;;;5086842;28;20187;-70
2022/10/20 05:25:27;;;;;;;2.90;2.70;;;12.50;99.90;13.40;100943.00;;;;5074212;28;20174;-70
2022/10/20 05:28:39;;;;;;;3.33;2.67;;;12.50;99.90;13.30;100929.00;;;;5073964;28;20174;-70
2022/10/20 05:32:02;;;;;;;3.50;2.40;;;12.50;99.90;13.10;100967.00;;;;5089267;28;20244;-70
2022/10/20 05:35:13;;;;;;;2.13;2.03;;;12.40;99.90;13.30;100958.00;;;;5089925;28;20644;-70
2022/10/20 05:38:22;;;;;;;5.40;2.80;;;12.40;99.90;13.40;100916.00;;;;5073776;28;20660;-70
2022/10/20 05:41:29;;;;;;;4.07;2.73;;;12.50;99.90;13.50;100885.00;;;;5088673;28;20273;-70
2022/10/20 05:44:39;;;;;;;3.20;1.73;;;12.50;99.90;13.80;100933.00;;;;5073574;28;20173;-70
2022/10/20 05:47:51;;;;;;;1.30;1.07;;;12.50;99.90;13.50;100911.00;;;;5072601;28;20195;-70
2022/10/20 05:51:08;;;;;;;1.20;1.17;;;12.60;99.90;13.40;100916.00;;;;5073279;28;20193;-70
2022/10/20 05:54:17;;;;;;;3.10;2.87;;;12.50;99.90;13.80;100910.00;;;;5072693;28;20295;-70
2022/10/20 05:57:21;;;;;;;9.10;4.20;;;12.70;99.90;13.90;100907.00;;;;5073273;28;20545;-70
2022/10/20 06:00:51;;;;;;;2.10;1.97;;;12.70;99.90;13.80;100908.00;;;;5089320;28;20262;-70
2022/10/20 06:04:07;;;;;;;1.20;1.20;;;12.70;99.90;13.60;100918.00;;;;5088672;28;20322;-70
2022/10/20 06:07:31;;;;;;;0.97;0.97;;;12.70;99.90;13.70;100902.00;;;;5072231;28;20291;-70
2022/10/20 06:10:44;;;;;;;1.17;1.07;;;12.80;99.90;13.80;100896.00;;;;5088062;28;20602;-70
2022/10/20 06:14:06;;;;;;;12.67;2.90;;;12.80;99.90;13.60;100896.00;;;;5087957;28;20176;-70
2022/10/20 06:17:15;;;;;;;5.20;0.93;;;12.80;99.90;13.60;100880.00;;;;5088449;28;20184;-70
2022/10/20 06:20:21;;;;;;;0.70;0.70;;;12.70;99.90;13.60;100850.00;;;;5053160;28;20216;-70
2022/10/20 06:23:34;;;;;;;0.30;0.30;;;12.60;99.90;14.10;100884.00;;;;5053151;28;20211;-70
2022/10/20 06:27:19;;;;;;;1.80;1.67;;;12.80;99.90;14.00;100879.00;;;;5068298;28;20541;-71
2022/10/20 06:30:25;;;;;;;2.43;2.10;;;12.80;99.90;14.30;100858.00;;;;5068515;28;20189;-70
2022/10/20 06:33:49;;;;;;;3.63;3.43;;;13.00;99.90;13.80;100903.00;;;;5053346;28;20207;-70
2022/10/20 06:36:49;;;;;;;0.83;0.70;;;12.90;99.90;13.80;100902.00;;;;5052976;28;20183;-70
2022/10/20 06:40:08;;;;;;;2.63;2.33;;;12.80;99.90;14.00;100896.00;;;;5051558;28;20212;-70
2022/10/20 06:46:38;;;;;;;0.70;0.70;;;13.00;99.90;14.00;100909.00;;;;5065519;28;20195;-70
2022/10/20 06:49:49;;;;;;;1.97;1.33;;;12.90;99.90;14.20;100913.00;;;;5067980;28;20187;-70
2022/10/20 06:53:01;;;;;;;1.50;1.27;;;13.10;99.90;14.30;100910.00;;;;5067487;28;20595;-70
2022/10/20 06:56:23;;;;;;;2.57;2.33;;;13.10;99.90;14.20;100922.00;;;;5072581;28;20185;-70
2022/10/20 06:59:32;;;;;;;1.40;1.30;;;13.10;99.90;14.30;100921.00;;;;5070483;28;20180;-70
2022/10/20 07:02:50;;;;;;;1.53;1.53;;;13.10;99.90;14.20;100871.00;;;;5071877;28;20227;-70
2022/10/20 07:05:47;;;;;;;0.43;0.40;;;13.20;99.90;14.30;100904.00;;;;5072098;28;20187;-70
2022/10/20 07:09:02;;;;;;;2.73;2.53;;;13.30;99.90;14.20;100918.00;;;;5072014;28;20185;-70
2022/10/20 07:12:28;;;;;;;2.37;2.23;;;13.30;99.90;14.20;100940.00;;;;5072196;28;20521;-70
2022/10/20 07:15:22;;;;;;;2.10;1.23;;;13.40;99.90;14.40;100940.00;;;;5072017;28;20332;-70
2022/10/20 07:18:31;;;;;;;1.57;1.40;;;13.40;99.90;14.60;100911.00;;;;5057731;28;20202;-70
2022/10/20 07:22:12;;;;;;;0.87;0.87;;;13.50;99.90;14.70;100916.00;;;;5072493;28;20179;-70
2022/10/20 07:25:25;;;;;;;0.30;0.30;;;13.70;99.90;14.50;100922.00;;;;5056361;28;20292;-70
2022/10/20 07:28:34;;;;;;;0.47;0.47;;;13.60;99.90;14.40;100904.00;;;;5071075;28;20228;-70
2022/10/20 07:31:28;;;;;;;0.70;0.70;;;13.60;99.90;15.00;100923.00;;;;5070620;28;20177;-71
2022/10/20 07:34:39;;;;;;;1.90;1.80;;;13.70;99.90;14.90;100926.00;;;;5057340;28;20913;-70
2022/10/20 07:37:52;;;;;;;2.07;1.03;;;13.70;99.90;15.00;100895.00;;;;5055199;28;20185;-70
2022/10/20 07:41:10;;;;;;;2.47;2.07;;;13.80;99.90;14.80;100923.00;;;;5071536;28;20608;-70
2022/10/20 07:44:39;;;;;;;1.20;1.20;;;14.00;99.90;15.30;100910.00;;;;5070727;28;20242;-70
2022/10/20 07:47:47;;;;;;;0.70;0.70;;;14.10;99.90;14.90;100926.00;;;;5056310;28;20195;-70
2022/10/20 07:50:56;;;;;;;0.93;0.87;;;14.10;99.90;15.10;100933.00;;;;5071635;28;20218;-69
2022/10/20 07:54:07;;;;;;;2.67;2.47;;;14.20;99.90;15.10;100925.00;;;;5070990;28;20213;-70
2022/10/20 07:57:31;;;;;;;0.83;0.83;;;14.10;99.90;14.70;100925.00;;;;5054662;28;20660;-70
2022/10/20 08:00:37;;;;;;;0.93;0.90;;;14.00;99.90;14.70;100951.00;;;;5070588;28;20178;-70
2022/10/20 08:03:45;;;;;;;1.07;0.60;;;14.00;99.90;15.00;100889.00;;;;5055428;28;20206;-71
2022/10/20 08:07:08;;;;;;;0.70;0.70;;;14.00;99.90;15.30;100919.00;;;;5055351;28;20175;-71
2022/10/20 08:10:17;;;;;;;0.30;0.30;;;14.20;99.90;15.20;100912.00;;;;5070866;28;20657;-71
2022/10/20 08:13:21;;;;;;;1.60;1.50;;;14.40;99.90;15.10;100908.00;;;;5070836;28;20180;-71
2022/10/20 08:16:38;;;;;;;1.20;1.07;;;14.40;99.90;15.90;100897.00;;;;5070550;28;20186;-70
2022/10/20 08:19:42;;;;;;;0.70;0.70;;;14.50;99.90;15.70;100896.00;;;;5069944;28;20642;-69
2022/10/20 08:22:53;;;;;;;2.60;2.00;;;14.60;99.90;15.60;100910.00;;;;5055230;28;20229;-71
2022/10/20 08:26:07;;;;;;;0.60;0.60;;;14.70;99.90;15.40;100901.00;;;;5054242;28;20623;-71
2022/10/20 08:29:11;;;;;;;0.97;0.90;;;14.60;99.90;15.20;100913.00;;;;5054151;28;20193;-71
2022/10/20 08:32:25;;;;;;;1.07;1.07;;;14.40;99.90;15.60;100913.00;;;;5070583;28;20634;-69
2022/10/20 08:35:36;;;;;;;8.87;2.57;;;14.50;99.90;15.40;100908.00;;;;5068279;28;20266;-71
2022/10/20 08:38:48;;;;;;;1.43;1.33;;;14.60;99.90;15.40;100914.00;;;;5053983;28;20193;-71
2022/10/20 08:41:55;;;;;;;1.83;1.37;;;14.60;99.90;15.60;100900.00;;;;5053753;28;20187;-71
2022/10/20 08:45:07;;;;;;;1.87;1.77;;;14.70;99.90;15.50;100903.00;;;;5070624;28;20183;-71
2022/10/20 08:48:16;;;;;;;1.93;1.33;;;14.60;99.90;15.50;100908.00;;;;5053739;28;20244;-71
2022/10/20 08:51:30;;;;;;;0.43;0.43;;;14.60;99.90;15.80;100892.00;;;;5053969;28;20174;-71
2022/10/20 08:54:51;;;;;;;1.90;1.80;;;14.70;99.90;15.80;100886.00;;;;5070236;28;20691;-69
2022/10/20 08:58:03;;;;;;;32.83;21.10;;;14.80;99.90;15.90;100893.00;;;;5070047;28;20253;-69
2022/10/20 09:05:01;;;;;;;2.90;2.80;;;14.80;99.90;15.80;100845.00;;;;5054744;28;20207;-70
2022/10/20 09:08:01;;;;;;;2.90;2.70;;;14.90;99.90;15.40;100858.00;;;;5053611;28;20180;-70
2022/10/20 09:10:43;;;;;;;0.83;0.83;;;14.80;99.90;15.70;100878.00;;;;5053246;28;20689;-69
2022/10/20 09:13:52;;;;;;;0.67;0.67;;;14.70;99.90;15.80;100883.00;;;;5069421;28;20277;-69
2022/10/20 09:16:55;;;;;;;2.23;2.00;;;14.70;99.90;15.70;100867.00;;;;5053718;28;20563;-69
2022/10/20 09:20:02;;;;;;;1.47;1.43;;;14.60;99.90;15.70;100850.00;;;;5038914;28;20194;-69
2022/10/20 09:23:12;;;;;;;2.73;1.40;;;14.70;99.90;16.00;100793.00;;;;5069385;28;20686;-70
2022/10/20 09:26:21;;;;;;;1.77;1.73;;;14.80;99.90;15.70;100831.00;;;;5069938;28;20187;-69
2022/10/20 09:29:33;;;;;;;4.67;4.37;;;14.70;99.90;15.80;100838.00;;;;5069529;28;20582;-69
2022/10/20 09:32:38;;;;;;;19.00;15.20;;;14.70;99.90;16.10;100826.00;;;;5054027;28;20676;-70
2022/10/20 09:39:25;;;;;;;1.53;1.47;;;14.80;99.90;16.40;100811.00;;;;5052686;28;20546;-69
2022/10/20 09:42:21;;;;;;;2.33;2.23;;;15.00;99.90;16.60;100832.00;;;;5053874;28;20210;-69
2022/10/20 09:45:14;;;;;;;2.43;2.33;;;15.20;99.90;16.10;100770.00;;;;5069376;28;20180;-69
2022/10/20 09:48:21;;;;;;;3.13;2.90;;;15.10;99.90;16.60;100822.00;;;;5069024;28;20188;-69
2022/10/20 09:51:30;;;;;;;2.70;2.50;;;15.30;99.90;16.90;100818.00;;;;5052867;28;20650;-70
2022/10/20 09:54:52;;;;;;;2.03;1.93;;;15.50;99.90;16.30;100822.00;;;;5052297;28;20195;-70
2022/10/20 09:58:06;;;;;;;1.60;1.50;;;15.40;99.90;16.50;100819.00;;;;5038767;28;20214;-69
2022/10/20 10:01:26;;;;;;;1.30;1.30;;;15.40;99.90;16.40;100851.00;;;;5052637;28;20590;-69
2022/10/20 10:04:38;;;;;;;1.30;1.30;;;15.50;99.90;16.10;100851.00;;;;5053990;28;20207;-69
2022/10/20 10:07:41;;;;;;;2.07;1.97;;;15.50;99.90;16.50;100862.00;;;;5069039;28;20216;-69
2022/10/20 10:10:35;;;;;;;2.30;2.17;;;15.50;99.90;16.60;100848.00;;;;5068178;28;20274;-70
2022/10/20 10:13:43;;;;;;;4.33;3.37;;;15.60;99.90;16.60;100851.00;;;;5051909;28;20178;-69
2022/10/20 10:16:52;;;;;;;1.83;1.73;;;15.60;99.90;17.00;100836.00;;;;5051913;28;20186;-69
2022/10/20 10:20:05;;;;;;;6.63;6.00;;;15.80;99.90;16.70;100849.00;;;;5053323;28;20268;-69
2022/10/20 10:34:11;;;;;;;3.00;2.70;;;15.40;99.90;16.20;100883.00;;;;5151046;27;20304;-68
2022/10/20 10:37:28;;;;;;;6.90;1.43;;;15.60;99.90;16.70;100872.00;;;;5150802;27;20191;-68
2022/10/20 10:40:15;;;;;;;3.23;2.50;;;15.70;99.90;16.70;100838.00;;;;5134536;27;20692;-68
2022/10/20 10:43:02;;;;;;;5.73;4.23;;;15.80;99.90;16.60;100854.00;;;;5152397;27;20647;-68
2022/10/20 10:46:25;;;;;;;1.63;1.53;;;15.80;99.90;16.50;100872.00;;;;5151584;27;20179;-68
2022/10/20 10:49:26;;;;;;;1.37;1.37;;;15.80;99.90;16.70;100861.00;;;;5133917;27;20562;-68
2022/10/20 10:52:28;;;;;;;1.30;1.20;;;15.80;99.90;17.00;100875.00;;;;5151957;27;20571;-68
2022/10/20 10:55:17;;;;;;;1.43;1.20;;;15.90;99.90;16.90;100871.00;;;;5131921;27;20217;-68
2022/10/20 10:58:06;;;;;;;19.67;3.70;;;16.00;99.90;17.30;100868.00;;;;5133238;27;20244;-68
2022/10/20 11:01:40;;;;;;;0.70;0.70;;;16.30;99.90;17.50;100867.00;;;;5151480;27;20240;-68
2022/10/20 11:05:04;;;;;;;1.33;1.33;;;16.50;99.90;17.70;100853.00;;;;5151727;27;20547;-68
2022/10/20 11:07:53;;;;;;;1.93;1.43;;;16.60;99.90;18.00;100864.00;;;;5131179;27;20727;-68
2022/10/20 11:10:54;;;;;;;0.80;0.80;;;16.70;99.90;17.90;100838.00;;;;5151505;27;20183;-68
2022/10/20 11:13:44;;;;;;;1.30;1.20;;;16.90;99.90;18.10;100813.00;;;;5132625;27;20210;-68
2022/10/20 11:16:50;;;;;;;1.43;1.33;;;17.00;99.90;18.10;100803.00;;;;5151477;27;20260;-68
2022/10/20 11:23:22;;;;;;;1.70;1.70;;;17.00;99.90;18.30;100831.00;;;;5087840;28;20237;-68
2022/10/20 11:26:11;;;;;;;2.03;1.93;;;17.30;99.90;18.40;100816.00;;;;5070598;28;20191;-68
2022/10/20 11:30:07;;;;;;;1.83;1.60;;;17.60;99.90;18.80;100813.00;;;;5070378;28;20187;-68
2022/10/20 11:33:40;;;;;;;2.40;2.00;;;17.80;99.90;19.10;100807.00;;;;5127630;27;20380;-68
2022/10/20 11:36:41;;;;;;;1.73;1.58;;;18.00;99.90;19.10;100793.00;;;;5139698;27;20180;-69
2022/10/20 11:39:50;;;;;;;1.80;1.70;;;18.10;99.90;18.80;100797.00;;;;5133359;27;20664;-69
2022/10/20 11:45:43;;;;;;;1.85;1.63;;;18.00;99.90;18.80;100785.00;;;;5136976;27;20191;-69
2022/10/20 11:48:58;;;;;;;1.27;1.17;;;18.00;99.90;19.00;100758.00;;;;5118516;27;20191;-69
2022/10/20 11:51:47;;;;;;;3.13;2.88;;;18.10;99.90;19.00;100795.00;;;;5126395;27;20218;-69
2022/10/20 11:54:46;;;;;;;5.10;2.30;;;18.10;99.90;18.80;100782.00;;;;5137124;27;20175;-69
2022/10/20 11:57:42;;;;;;;4.37;2.87;;;18.20;99.90;18.80;100793.00;;;;5118440;27;20205;-70
2022/10/20 12:00:38;;;;;;;9.75;9.07;;;18.20;99.90;19.10;100792.00;;;;5118595;27;20183;-70
2022/10/20 12:04:12;;;;;;;1.80;1.70;;;18.30;99.90;19.70;100770.00;;;;5136678;27;20547;-70
2022/10/20 12:07:05;;;;;;;6.70;1.40;;;18.70;99.90;19.60;100769.00;;;;5073268;28;20660;-70
2022/10/20 12:10:04;;;;;;;0.73;0.73;;;18.90;99.90;20.10;100752.00;;;;5073545;28;20182;-70
2022/10/20 12:13:02;;;;;;;0.77;0.70;;;19.40;99.90;20.80;100745.00;;;;5117777;27;20278;-69
2022/10/20 12:16:23;;;;;;;5.03;2.25;;;19.60;99.90;20.90;100730.00;;;;5126586;27;20196;-70
2022/10/20 12:19:29;;;;;;;1.23;0.93;;;20.10;99.90;20.60;100736.00;;;;5103785;27;20191;-70
2022/10/20 12:22:15;;;;;;;2.85;2.53;;;20.20;99.90;21.00;100735.00;;;;5118017;27;20630;-68
2022/10/20 12:25:01;;;;;;;0.70;0.70;;;20.40;99.90;21.80;100720.00;;;;5118014;27;20583;-68
2022/10/20 12:28:19;;;;;;;2.83;1.38;;;20.80;99.90;22.00;100725.00;;;;5135898;27;20186;-68
2022/10/20 12:31:46;;;;;;;2.13;1.73;;;21.00;99.90;21.40;100735.00;;;;5135413;27;20598;-68
2022/10/20 12:35:05;;;;;;;1.23;1.13;;;21.20;99.90;21.30;100711.00;;;;5091553;27;20207;-68
2022/10/20 12:38:14;;;;;;;6.78;1.63;;;20.90;99.90;21.20;100716.00;;;;5118291;27;20172;-68
2022/10/20 12:41:18;;;;;;;2.08;1.08;;;20.70;99.90;21.10;100702.00;;;;5117815;27;20225;-69
2022/10/20 12:44:31;;;;;;;0.52;0.52;;;20.80;99.90;21.20;100713.00;;;;5136131;27;20175;-68
2022/10/20 12:47:27;;;;;;;1.20;1.17;;;20.80;99.90;21.10;100675.00;;;;5135718;27;20183;-68
2022/10/20 12:50:31;;;;;;;0.40;0.40;;;20.70;99.90;21.50;100703.00;;;;5107068;27;20188;-68
2022/10/20 12:53:34;;;;;;;0.20;0.20;;;20.90;99.90;21.90;100704.00;;;;5135810;27;20171;-68
2022/10/20 12:57:06;;;;;;;0.47;0.45;;;21.10;99.90;22.10;100705.00;;;;5134641;27;20175;-69
2022/10/20 13:00:18;;;;;;;0.30;0.30;;;21.30;99.90;22.40;100707.00;;;;5117863;27;20187;-69
2022/10/20 13:03:32;;;;;;;0.20;0.20;;;21.50;99.90;22.90;100716.00;;;;5118545;27;20215;-69
2022/10/20 13:06:42;;;;;;;0.50;0.50;;;21.70;99.90;22.00;100715.00;;;;5116842;27;20183;-69
2022/10/20 13:09:56;;;;;;;0.20;0.20;;;21.50;99.90;21.90;100711.00;;;;5135028;27;20290;-69
2022/10/20 13:13:22;;;;;;;0.73;0.63;;;21.40;99.90;21.50;100712.00;;;;5065422;27;20188;-69
2022/10/20 13:16:52;;;;;;;4.13;3.83;;;20.90;99.90;21.30;100704.00;;;;5135097;27;20266;-69
2022/10/20 13:20:10;;;;;;;0.57;0.57;;;20.70;99.90;21.40;100710.00;;;;5135727;27;20211;-69
2022/10/20 13:23:15;;;;;;;0.30;0.30;;;20.60;99.90;21.20;100709.00;;;;5031752;28;20218;-69
2022/10/20 13:26:01;;;;;;;0.70;0.50;;;20.40;99.90;21.30;100716.00;;;;5015172;28;20186;-69
2022/10/20 13:29:13;;;;;;;0.30;0.30;;;20.50;99.90;21.30;100700.00;;;;5031918;28;20281;-69
2022/10/20 13:31:59;;;;;;;2.22;0.63;;;20.40;99.90;20.70;100704.00;;;;5015271;28;20212;-69
2022/10/20 13:35:09;;;;;;;0.20;0.20;;;20.30;99.90;21.10;100700.00;;;;5031903;28;20205;-69
2022/10/20 13:38:53;;;;;;;1.02;0.93;;;20.30;99.90;20.60;100687.00;;;;5012098;28;20183;-69
2022/10/20 13:41:57;;;;;;;1.17;1.17;;;20.10;99.90;20.80;100677.00;;;;5051665;28;20269;-69
2022/10/20 13:45:16;;;;;;;0.57;0.38;;;20.10;99.90;21.40;100655.00;;;;5051088;28;20667;-69
2022/10/20 13:48:11;;;;;;;0.10;0.10;;;20.30;99.90;21.60;100685.00;;;;5051250;28;20324;-70
2022/10/20 13:51:12;;;;;;;0.75;0.75;;;20.60;99.90;21.30;100683.00;;;;5035249;28;20178;-69
2022/10/20 13:54:07;;;;;;;0.30;0.30;;;20.60;99.90;21.30;100679.00;;;;5047415;28;20219;-70
2022/10/20 13:57:42;;;;;;;0.45;0.45;;;20.50;99.90;21.30;100680.00;;;;5047943;28;20654;-70
2022/10/20 14:01:00;;;;;;;1.98;1.67;;;20.50;99.90;21.00;100670.00;;;;5012995;28;20582;-71
2022/10/20 14:03:29;;;;;;;5.90;0.65;;;20.40;99.90;20.90;100658.00;;;;5040174;28;20586;-70
2022/10/20 14:06:05;;;;;;;0.45;0.43;;;20.20;99.90;21.00;100669.00;;;;5078844;28;20184;-70
2022/10/20 14:08:43;;;;;;;0.25;0.25;;;20.20;99.90;21.10;100669.00;;;;5085413;27;20183;-71
2022/10/20 14:11:21;;;;;;;0.20;0.20;;;20.20;99.90;21.50;100679.00;;;;5134452;27;20155;-71
2022/10/20 14:14:30;;;;;;;0.45;0.45;;;20.30;99.90;21.60;100668.00;;;;5099053;27;20186;-70
2022/10/20 14:17:39;;;;;;;0.63;0.60;;;20.40;99.90;21.00;100644.00;;;;5097531;27;20648;-71
2022/10/20 14:20:56;;;;;;;0.20;0.20;;;20.30;99.90;21.00;100684.00;;;;5108927;27;20181;-71
2022/10/20 14:23:51;;;;;;;0.52;0.52;;;20.20;99.90;20.70;100685.00;;;;5014087;28;20897;-70
2022/10/20 14:26:45;;;;;;;0.30;0.30;;;20.10;99.90;20.80;100675.00;;;;5015214;28;20179;-70
2022/10/20 14:29:54;;;;;;;0.47;0.47;;;20.10;99.90;20.90;100677.00;;;;5009067;28;20264;-70
2022/10/20 14:32:58;;;;;;;3.58;0.95;;;20.10;99.90;20.90;100679.00;;;;4994029;28;20211;-70
2022/10/20 14:36:06;;;;;;;0.10;0.10;;;20.20;99.90;21.10;100686.00;;;;5014465;28;20181;-70
2022/10/20 14:39:25;;;;;;;11.90;1.30;;;20.20;99.90;20.90;100680.00;;;;5011848;28;20198;-70